createdAt,value
2019-04-13T00:01:02.154Z,6.93
2019-04-13T00:03:31.302Z,7.80
2019-04-13T00:06:01.511Z,10.57
2019-04-13T00:08:34.733Z,6.73
2019-04-13T00:11:21.525Z,7.43
2019-04-13T00:13:50.268Z,7.77
2019-04-13T00:16:18.906Z,6.73
2019-04-13T00:18:47.494Z,7.40
2019-04-13T00:21:15.978Z,7.27
2019-04-13T00:23:44.497Z,7.00
2019-04-13T00:26:13.065Z,7.63
2019-04-13T00:28:41.686Z,6.70
2019-04-13T00:31:10.183Z,7.80
2019-04-13T00:33:38.769Z,8.00
2019-04-13T00:36:07.261Z,6.97
2019-04-13T00:38:35.860Z,6.10
2019-04-13T00:41:04.605Z,7.67
2019-04-13T00:43:33.157Z,7.73
2019-04-13T00:46:01.657Z,10.33
2019-04-13T00:48:30.250Z,6.33
2019-04-13T00:50:58.887Z,7.17
2019-04-13T00:53:27.487Z,7.43
2019-04-13T00:55:56.133Z,8.50
2019-04-13T00:58:24.675Z,7.50
2019-04-13T01:00:53.242Z,8.47
2019-04-13T01:03:21.802Z,7.43
2019-04-13T01:05:50.399Z,7.50
2019-04-13T01:08:18.893Z,8.43
2019-04-13T01:10:47.494Z,7.67
2019-04-13T01:13:16.049Z,6.50
2019-04-13T01:15:44.701Z,7.33
2019-04-13T01:18:13.198Z,6.73
2019-04-13T01:20:41.853Z,8.20
2019-04-13T01:23:10.346Z,8.43
2019-04-13T01:25:38.937Z,8.47
2019-04-13T01:28:07.513Z,7.27
2019-04-13T01:30:36.113Z,7.40
2019-04-13T01:33:04.750Z,6.83
2019-04-13T01:35:33.315Z,7.77
2019-04-13T01:38:01.831Z,6.47
2019-04-13T01:40:30.465Z,8.30
2019-04-13T01:42:59.057Z,10.20
2019-04-13T01:45:27.617Z,6.93
2019-04-13T01:47:57.353Z,7.07
2019-04-13T01:50:26.002Z,6.90
2019-04-13T01:52:54.598Z,8.03
2019-04-13T01:55:23.238Z,7.13
2019-04-13T01:57:51.763Z,6.27
2019-04-13T02:00:22.047Z,7.40
2019-04-13T02:02:54.102Z,6.90
2019-04-13T02:05:40.647Z,8.63
2019-04-13T02:08:10.888Z,6.50
2019-04-13T02:10:41.106Z,7.57
2019-04-13T02:13:09.670Z,8.17
2019-04-13T02:15:38.335Z,7.30
2019-04-13T02:18:06.905Z,7.77
2019-04-13T02:20:35.504Z,7.67
2019-04-13T02:23:04.144Z,7.00
2019-04-13T02:25:32.739Z,6.67
2019-04-13T02:28:01.777Z,6.87
2019-04-13T02:30:30.372Z,6.13
2019-04-13T02:32:58.939Z,6.93
2019-04-13T02:35:36.183Z,6.33
2019-04-13T02:37:58.149Z,6.50
2019-04-13T02:40:26.680Z,6.83
2019-04-13T02:42:55.242Z,6.17
2019-04-13T02:45:23.847Z,7.57
2019-04-13T02:47:52.418Z,7.10
2019-04-13T02:50:20.987Z,10.90
2019-04-13T02:52:49.586Z,5.87
2019-04-13T02:55:18.162Z,6.23
2019-04-13T02:57:46.754Z,6.70
2019-04-13T03:00:16.353Z,5.57
2019-04-13T03:02:44.952Z,6.40
2019-04-13T03:05:13.589Z,8.73
2019-04-13T03:07:42.449Z,6.80
2019-04-13T03:10:11.162Z,6.60
2019-04-13T03:12:39.754Z,7.77
2019-04-13T03:15:08.658Z,6.90
2019-04-13T03:17:41.698Z,6.50
2019-04-13T03:20:12.044Z,7.03
2019-04-13T03:22:40.605Z,6.73
2019-04-13T03:25:09.344Z,7.20
2019-04-13T03:27:37.906Z,7.87
2019-04-13T03:30:09.226Z,5.90
2019-04-13T03:32:37.724Z,6.50
2019-04-13T03:35:09.145Z,6.53
2019-04-13T03:37:37.709Z,6.50
2019-04-13T03:40:06.759Z,6.67
2019-04-13T03:42:35.315Z,7.47
2019-04-13T03:45:08.367Z,6.23
2019-04-13T03:47:36.986Z,7.07
2019-04-13T03:50:07.725Z,10.50
2019-04-13T03:52:36.358Z,8.03
2019-04-13T03:55:06.695Z,6.53
2019-04-13T03:57:35.263Z,6.63
2019-04-13T04:00:06.103Z,8.67
2019-04-13T04:02:34.737Z,7.53
2019-04-13T04:05:03.343Z,6.70
2019-04-13T04:07:31.901Z,7.37
2019-04-13T04:10:00.487Z,7.07
2019-04-13T04:12:29.089Z,7.33
2019-04-13T04:14:57.650Z,7.77
2019-04-13T04:17:26.255Z,7.30
2019-04-13T04:19:54.815Z,8.20
2019-04-13T04:22:23.405Z,7.87
2019-04-13T04:24:51.970Z,8.00
2019-04-13T04:27:20.505Z,8.93
2019-04-13T04:29:49.070Z,7.43
2019-04-13T04:32:17.689Z,7.77
2019-04-13T04:34:46.523Z,9.10
2019-04-13T04:37:15.121Z,8.97
2019-04-13T04:39:43.722Z,8.73
2019-04-13T04:42:12.318Z,8.03
2019-04-13T04:44:40.877Z,9.00
2019-04-13T04:47:09.752Z,8.03
2019-04-13T04:49:38.326Z,7.60
2019-04-13T04:52:06.924Z,10.13
2019-04-13T04:54:35.493Z,8.77
2019-04-13T04:57:04.107Z,7.40
2019-04-13T04:59:32.699Z,8.23
2019-04-13T05:02:01.253Z,8.00
2019-04-13T05:04:29.845Z,8.50
2019-04-13T05:06:58.413Z,9.50
2019-04-13T05:09:27.006Z,9.37
2019-04-13T05:11:55.507Z,9.07
2019-04-13T05:14:24.098Z,8.17
2019-04-13T05:16:52.598Z,9.63
2019-04-13T05:19:21.120Z,9.17
2019-04-13T05:21:49.688Z,8.70
2019-04-13T05:24:18.614Z,10.90
2019-04-13T05:26:47.114Z,9.27
2019-04-13T05:29:15.745Z,10.27
2019-04-13T05:31:44.282Z,10.63
2019-04-13T05:34:12.886Z,9.67
2019-04-13T05:36:47.497Z,8.57
2019-04-13T05:39:11.700Z,9.97
2019-04-13T05:41:40.281Z,10.53
2019-04-13T05:44:08.856Z,9.27
2019-04-13T05:46:37.450Z,9.53
2019-04-13T05:49:06.018Z,10.27
2019-04-13T05:51:34.678Z,9.27
2019-04-13T05:54:03.194Z,10.00
2019-04-13T05:56:31.788Z,10.77
2019-04-13T05:59:03.314Z,10.30
2019-04-13T06:01:30.685Z,10.47
2019-04-13T06:03:59.181Z,9.07
2019-04-13T06:06:27.699Z,9.90
2019-04-13T06:08:56.274Z,11.67
2019-04-13T06:11:24.858Z,9.77
2019-04-13T06:13:57.546Z,9.87
2019-04-13T06:16:23.593Z,9.90
2019-04-13T06:18:52.782Z,12.70
2019-04-13T06:21:21.491Z,10.83
2019-04-13T06:23:50.268Z,11.57
2019-04-13T06:26:19.314Z,10.03
2019-04-13T06:28:48.623Z,11.33
2019-04-13T06:31:19.042Z,12.03
2019-04-13T06:33:49.273Z,13.97
2019-04-13T06:36:17.854Z,11.60
2019-04-13T06:38:46.467Z,11.37
2019-04-13T06:41:15.035Z,11.33
2019-04-13T06:43:43.642Z,12.70
2019-04-13T06:46:12.218Z,11.00
2019-04-13T06:48:40.825Z,12.97
2019-04-13T06:51:09.389Z,12.03
2019-04-13T06:53:38.582Z,13.73
2019-04-13T06:56:07.784Z,13.53
2019-04-13T06:58:36.390Z,14.07
2019-04-13T07:01:05.369Z,12.37
2019-04-13T07:03:33.970Z,11.53
2019-04-13T07:06:02.547Z,14.27
2019-04-13T07:08:38.883Z,13.63
2019-04-13T07:11:21.563Z,13.47
2019-04-13T07:13:59.278Z,11.70
2019-04-13T07:16:32.219Z,13.13
2019-04-13T07:19:00.817Z,11.33
2019-04-13T07:21:29.532Z,12.17
2019-04-13T07:23:58.790Z,12.67
2019-04-13T07:26:27.355Z,13.43
2019-04-13T07:28:55.980Z,13.43
2019-04-13T07:31:24.562Z,12.07
2019-04-13T07:33:53.129Z,12.87
2019-04-13T07:36:22.546Z,14.10
2019-04-13T07:38:51.306Z,11.90
2019-04-13T07:41:19.906Z,12.40
2019-04-13T07:43:48.485Z,11.57
2019-04-13T07:46:24.701Z,13.43
2019-04-13T07:48:56.757Z,11.73
2019-04-13T07:51:33.111Z,13.60
2019-04-13T07:54:01.685Z,12.67
2019-04-13T07:56:32.123Z,12.20
2019-04-13T07:59:00.508Z,14.20
2019-04-13T08:01:29.162Z,13.80
2019-04-13T08:03:57.667Z,12.73
2019-04-13T08:06:26.302Z,10.17
2019-04-13T08:08:54.879Z,13.63
2019-04-13T08:11:23.511Z,11.03
2019-04-13T08:13:52.754Z,19.90
2019-04-13T08:16:24.788Z,16.40
2019-04-13T08:18:53.207Z,13.07
2019-04-13T08:21:21.730Z,13.63
2019-04-13T08:23:57.723Z,11.93
2019-04-13T08:26:26.338Z,11.50
2019-04-13T08:28:54.914Z,12.07
2019-04-13T08:31:26.437Z,12.83
2019-04-13T08:33:55.313Z,12.73
2019-04-13T08:36:23.810Z,12.33
2019-04-13T08:38:58.894Z,13.97
2019-04-13T08:41:22.841Z,12.03
2019-04-13T08:43:51.438Z,12.47
2019-04-13T08:46:20.074Z,13.73
2019-04-13T08:48:48.673Z,12.97
2019-04-13T08:51:17.662Z,11.87
2019-04-13T08:53:46.359Z,12.47
2019-04-13T08:56:14.937Z,11.97
2019-04-13T08:58:44.609Z,12.27
2019-04-13T09:01:15.744Z,13.00
2019-04-13T09:03:43.693Z,12.10
2019-04-13T09:06:16.578Z,12.60
2019-04-13T09:08:42.508Z,12.83
2019-04-13T09:11:14.269Z,12.33
2019-04-13T09:13:42.082Z,13.50
2019-04-13T09:16:10.803Z,12.57
2019-04-13T09:18:56.924Z,12.27
2019-04-13T09:21:31.843Z,13.87
2019-04-13T09:24:00.630Z,11.13
2019-04-13T09:26:29.206Z,12.73
2019-04-13T09:28:57.801Z,14.80
2019-04-13T09:31:26.388Z,14.17
2019-04-13T09:33:54.955Z,13.27
2019-04-13T09:36:23.552Z,12.03
2019-04-13T09:38:52.130Z,13.63
2019-04-13T09:41:20.746Z,12.33
2019-04-13T09:44:00.153Z,13.13
2019-04-13T09:46:28.759Z,15.03
2019-04-13T09:48:57.406Z,13.53
2019-04-13T09:51:26.005Z,11.73
2019-04-13T09:53:56.153Z,12.27
2019-04-13T09:56:36.708Z,12.30
2019-04-13T09:58:54.987Z,13.23
2019-04-13T10:01:23.590Z,13.83
2019-04-13T10:03:52.113Z,12.10
2019-04-13T10:06:21.173Z,12.27
2019-04-13T10:08:55.743Z,15.00
2019-04-13T10:11:21.713Z,13.37
2019-04-13T10:13:54.577Z,14.17
2019-04-13T10:16:30.182Z,13.40
2019-04-13T10:19:00.223Z,13.27
2019-04-13T10:21:28.898Z,14.43
2019-04-13T10:23:57.565Z,13.37
2019-04-13T10:26:26.173Z,11.93
2019-04-13T10:28:55.101Z,13.10
2019-04-13T10:31:26.646Z,14.03
2019-04-13T10:33:53.925Z,12.70
2019-04-13T10:36:22.452Z,13.10
2019-04-13T10:38:50.959Z,12.83
2019-04-13T10:41:19.553Z,14.67
2019-04-13T10:43:48.135Z,13.23
2019-04-13T10:46:22.371Z,14.67
2019-04-13T10:48:59.203Z,13.00
2019-04-13T10:51:30.675Z,12.37
2019-04-13T10:53:59.748Z,19.10
2019-04-13T10:56:28.374Z,15.10
2019-04-13T10:58:57.667Z,13.03
2019-04-13T11:01:26.332Z,15.07
2019-04-13T11:03:54.938Z,13.03
2019-04-13T11:06:23.506Z,21.00
2019-04-13T11:08:52.209Z,15.83
2019-04-13T11:11:20.774Z,19.77
2019-04-13T11:13:49.436Z,15.07
2019-04-13T11:16:18.489Z,14.83
2019-04-13T11:18:47.735Z,16.20
2019-04-13T11:21:17.181Z,19.30
2019-04-13T11:23:46.498Z,15.93
2019-04-13T11:26:15.126Z,14.50
2019-04-13T11:28:43.656Z,15.37
2019-04-13T11:31:12.226Z,15.37
2019-04-13T11:33:42.678Z,15.03
2019-04-13T11:36:11.056Z,17.17
2019-04-13T11:38:39.649Z,14.10
2019-04-13T11:41:12.646Z,15.07
2019-04-13T11:43:51.985Z,13.90
2019-04-13T11:46:29.180Z,14.27
2019-04-13T11:48:57.218Z,13.57
2019-04-13T11:51:31.730Z,13.83
2019-04-13T11:53:57.725Z,17.87
2019-04-13T11:56:28.771Z,14.53
2019-04-13T11:58:56.777Z,13.73
2019-04-13T12:01:45.259Z,15.43
2019-04-13T12:04:30.714Z,14.30
2019-04-13T12:07:00.911Z,14.13
2019-04-13T12:09:42.650Z,12.90
2019-04-13T12:12:22.492Z,15.60
2019-04-13T12:14:55.450Z,17.27
2019-04-13T12:17:42.252Z,15.87
2019-04-13T12:20:28.846Z,16.07
2019-04-13T12:22:57.558Z,14.83
2019-04-13T12:25:26.092Z,14.87
2019-04-13T12:27:54.665Z,14.07
2019-04-13T12:30:24.938Z,18.05
2019-04-13T12:32:53.636Z,20.80
2019-04-13T12:35:22.242Z,17.87
2019-04-13T12:37:50.807Z,16.33
2019-04-13T12:40:21.162Z,18.65
2019-04-13T12:42:49.779Z,21.45
2019-04-13T12:45:18.435Z,18.10
2019-04-13T12:47:47.025Z,15.40
2019-04-13T12:50:15.831Z,17.70
2019-04-13T12:52:44.378Z,16.63
2019-04-13T12:55:32.319Z,18.63
2019-04-13T12:58:00.890Z,20.27
2019-04-13T13:00:46.181Z,15.53
2019-04-13T13:03:19.427Z,14.90
2019-04-13T13:05:52.439Z,14.97
2019-04-13T13:08:21.114Z,21.27
2019-04-13T13:10:49.698Z,17.27
2019-04-13T13:13:21.605Z,17.27
2019-04-13T13:15:48.589Z,21.07
2019-04-13T13:18:18.258Z,18.63
2019-04-13T13:20:46.832Z,17.10
2019-04-13T13:23:15.467Z,18.73
2019-04-13T13:25:44.081Z,21.02
2019-04-13T13:28:12.971Z,17.17
2019-04-13T13:30:41.714Z,17.70
2019-04-13T13:33:10.313Z,15.90
2019-04-13T13:35:38.887Z,14.77
2019-04-13T13:38:07.570Z,17.20
2019-04-13T13:40:36.130Z,15.47
2019-04-13T13:43:05.121Z,16.77
2019-04-13T13:45:33.625Z,15.83
2019-04-13T13:48:02.298Z,20.50
2019-04-13T13:50:31.439Z,17.03
2019-04-13T13:53:00.070Z,16.77
2019-04-13T13:55:28.705Z,14.50
2019-04-13T13:58:16.942Z,16.47
2019-04-13T14:00:52.936Z,14.60
2019-04-13T14:03:22.110Z,16.67
2019-04-13T14:05:50.711Z,17.77
2019-04-13T14:08:19.320Z,16.77
2019-04-13T14:10:48.747Z,15.23
2019-04-13T14:13:17.748Z,15.77
2019-04-13T14:15:46.471Z,16.90
2019-04-13T14:18:15.087Z,15.30
2019-04-13T14:20:43.653Z,15.73
2019-04-13T14:23:12.166Z,18.40
2019-04-13T14:25:40.771Z,17.17
2019-04-13T14:28:09.334Z,15.47
2019-04-13T14:30:37.938Z,16.77
2019-04-13T14:33:06.506Z,14.67
2019-04-13T14:35:35.669Z,17.53
2019-04-13T14:38:04.378Z,18.13
2019-04-13T14:40:32.997Z,20.33
2019-04-13T14:43:01.569Z,18.07
2019-04-13T14:45:30.182Z,16.43
2019-04-13T14:47:58.762Z,17.63
2019-04-13T14:50:27.367Z,19.23
2019-04-13T14:52:55.946Z,17.17
2019-04-13T14:55:24.546Z,16.07
2019-04-13T14:57:53.133Z,16.70
2019-04-13T15:00:22.156Z,17.57
2019-04-13T15:02:50.799Z,16.53
2019-04-13T15:05:19.462Z,18.30
2019-04-13T15:07:47.963Z,15.50
2019-04-13T15:10:16.626Z,17.33
2019-04-13T15:12:45.203Z,19.13
2019-04-13T15:15:14.140Z,23.93
2019-04-13T15:17:53.739Z,19.23
2019-04-13T15:20:25.498Z,24.43
2019-04-13T15:22:55.854Z,21.50
2019-04-13T15:25:23.016Z,21.23
2019-04-13T15:27:55.243Z,19.30
2019-04-13T15:30:22.892Z,18.33
2019-04-13T15:32:51.615Z,21.30
2019-04-13T15:35:20.782Z,21.10
2019-04-13T15:37:51.546Z,21.43
2019-04-13T15:40:23.794Z,18.47
2019-04-13T15:42:58.641Z,18.53
2019-04-13T15:45:22.426Z,17.13
2019-04-13T15:47:51.072Z,20.57
2019-04-13T15:50:20.961Z,19.20
2019-04-13T15:52:51.045Z,16.90
2019-04-13T15:55:20.704Z,18.87
2019-04-13T15:57:49.474Z,20.73
2019-04-13T16:00:18.921Z,17.37
2019-04-13T16:02:47.765Z,16.60
2019-04-13T16:05:17.541Z,17.67
2019-04-13T16:07:46.204Z,19.47
2019-04-13T16:10:19.390Z,18.63
2019-04-13T16:13:04.895Z,15.90
2019-04-13T16:15:36.083Z,15.63
2019-04-13T16:18:04.877Z,18.97
2019-04-13T16:20:33.740Z,16.33
2019-04-13T16:23:02.643Z,19.40
2019-04-13T16:25:32.239Z,19.17
2019-04-13T16:28:20.171Z,17.60
2019-04-13T16:31:07.415Z,17.87
2019-04-13T16:33:37.769Z,20.80
2019-04-13T16:36:17.883Z,22.30
2019-04-13T16:38:54.671Z,24.47
2019-04-13T16:41:17.403Z,21.27
2019-04-13T16:43:47.581Z,22.90
2019-04-13T16:46:20.440Z,17.37
2019-04-13T16:49:02.543Z,19.57
2019-04-13T16:51:37.626Z,19.03
2019-04-13T16:54:23.385Z,18.40
2019-04-13T16:57:06.544Z,19.53
2019-04-13T16:59:53.699Z,17.50
2019-04-13T17:02:40.530Z,19.77
2019-04-13T17:05:11.392Z,19.30
2019-04-13T17:07:40.549Z,17.83
2019-04-13T17:10:10.615Z,18.57
2019-04-13T17:12:43.173Z,17.60
2019-04-13T17:15:10.538Z,16.70
2019-04-13T17:17:40.330Z,16.93
2019-04-13T17:20:11.889Z,17.27
2019-04-13T17:22:45.612Z,16.33
2019-04-13T17:25:16.351Z,18.00
2019-04-13T17:27:59.412Z,19.87
2019-04-13T17:30:21.937Z,17.90
2019-04-13T17:32:56.239Z,19.97
2019-04-13T17:35:26.493Z,15.83
2019-04-13T17:37:55.114Z,15.43
2019-04-13T17:40:26.175Z,17.30
2019-04-13T17:43:09.532Z,19.23
2019-04-13T17:45:49.080Z,20.63
2019-04-13T17:48:25.376Z,17.97
2019-04-13T17:51:12.314Z,15.10
2019-04-13T17:53:43.010Z,15.83
2019-04-13T17:56:22.286Z,17.07
2019-04-13T17:58:54.997Z,19.53
2019-04-13T18:01:41.810Z,16.13
2019-04-13T18:04:12.330Z,15.20
2019-04-13T18:06:46.534Z,15.93
2019-04-13T18:09:33.421Z,16.07
2019-04-13T18:12:20.696Z,16.00
2019-04-13T18:15:11.733Z,15.70
2019-04-13T18:17:55.047Z,14.80
2019-04-13T18:20:23.974Z,14.47
2019-04-13T18:22:53.817Z,17.03
2019-04-13T18:25:33.524Z,15.10
2019-04-13T18:27:54.206Z,15.33
2019-04-13T18:30:31.159Z,15.90
2019-04-13T18:32:53.230Z,14.03
2019-04-13T18:35:21.835Z,16.63
2019-04-13T18:37:51.603Z,15.40
2019-04-13T18:40:20.502Z,16.33
2019-04-13T18:42:58.291Z,15.87
2019-04-13T18:45:20.104Z,16.93
2019-04-13T18:47:49.210Z,14.23
2019-04-13T18:50:18.157Z,13.97
2019-04-13T18:52:46.750Z,18.00
2019-04-13T18:55:15.881Z,13.20
2019-04-13T18:57:44.604Z,15.00
2019-04-13T19:00:13.813Z,55.23
2019-04-13T19:02:42.338Z,16.87
2019-04-13T19:05:10.980Z,18.97
2019-04-13T19:07:39.603Z,14.57
2019-04-13T19:10:08.335Z,14.80
2019-04-13T19:12:36.959Z,13.90
2019-04-13T19:15:06.775Z,13.70
2019-04-13T19:17:35.398Z,15.00
2019-04-13T19:20:07.454Z,15.00
2019-04-13T19:22:36.041Z,12.23
2019-04-13T19:25:06.386Z,15.80
2019-04-13T19:27:34.889Z,14.27
2019-04-13T19:30:05.434Z,13.13
2019-04-13T19:32:34.018Z,16.77
2019-04-13T19:35:02.698Z,17.27
2019-04-13T19:37:31.286Z,20.40
2019-04-13T19:39:59.939Z,15.27
2019-04-13T19:42:28.520Z,16.77
2019-04-13T19:44:57.118Z,18.03
2019-04-13T19:47:25.619Z,18.43
2019-04-13T19:49:54.266Z,19.67
2019-04-13T19:52:27.509Z,23.13
2019-04-13T19:54:56.085Z,21.30
2019-04-13T19:57:24.754Z,18.30
2019-04-13T19:59:53.339Z,19.33
2019-04-13T20:02:23.579Z,17.87
2019-04-13T20:04:54.617Z,16.97
2019-04-13T20:07:23.144Z,17.23
2019-04-13T20:09:51.716Z,17.00
2019-04-13T20:12:20.323Z,17.33
2019-04-13T20:14:50.071Z,16.47
2019-04-13T20:17:18.848Z,15.63
2019-04-13T20:19:47.378Z,15.33
2019-04-13T20:22:15.974Z,16.67
2019-04-13T20:24:44.561Z,15.47
2019-04-13T20:27:13.215Z,16.47
2019-04-13T20:29:42.677Z,15.87
2019-04-13T20:32:12.425Z,16.50
2019-04-13T20:34:42.118Z,18.07
2019-04-13T20:37:12.039Z,17.77
2019-04-13T20:39:42.370Z,16.77
2019-04-13T20:42:16.945Z,16.33
2019-04-13T20:44:41.256Z,17.77
2019-04-13T20:47:09.757Z,19.80
2019-04-13T20:49:38.371Z,18.77
2019-04-13T20:52:06.998Z,17.47
2019-04-13T20:54:36.252Z,18.27
2019-04-13T20:57:06.285Z,15.97
2019-04-13T20:59:35.347Z,20.00
2019-04-13T21:02:04.852Z,18.70
2019-04-13T21:04:33.448Z,16.93
2019-04-13T21:07:03.080Z,18.00
2019-04-13T21:09:31.755Z,18.03
2019-04-13T21:12:01.289Z,20.40
2019-04-13T21:14:36.495Z,15.63
2019-04-13T21:17:00.680Z,16.80
2019-04-13T21:19:30.734Z,14.40
2019-04-13T21:22:00.603Z,17.70
2019-04-13T21:24:30.546Z,20.60
2019-04-13T21:26:59.290Z,18.53
2019-04-13T21:29:28.546Z,18.73
2019-04-13T21:31:58.517Z,17.70
2019-04-13T21:34:28.606Z,18.73
2019-04-13T21:36:57.340Z,17.63
2019-04-13T21:39:26.563Z,17.47
2019-04-13T21:41:56.316Z,16.90
2019-04-13T21:44:32.177Z,17.20
2019-04-13T21:46:55.285Z,18.53
2019-04-13T21:49:24.988Z,20.23
2019-04-13T21:51:58.045Z,18.73
2019-04-13T21:54:28.320Z,19.67
2019-04-13T21:56:57.964Z,20.27
2019-04-13T21:59:28.017Z,18.77
2019-04-13T22:02:17.847Z,16.73
2019-04-13T22:04:48.342Z,20.87
2019-04-13T22:07:17.980Z,18.30
2019-04-13T22:09:47.729Z,18.43
2019-04-13T22:12:17.748Z,18.93
2019-04-13T22:14:53.457Z,18.13
2019-04-13T22:17:17.967Z,18.23
2019-04-13T22:19:46.873Z,18.57
2019-04-13T22:22:16.463Z,23.00
2019-04-13T22:24:46.250Z,18.90
2019-04-13T22:27:16.132Z,20.60
2019-04-13T22:29:49.114Z,19.97
2019-04-13T22:32:25.492Z,21.07
2019-04-13T22:35:00.283Z,18.80
2019-04-13T22:37:29.915Z,17.17
2019-04-13T22:39:59.628Z,15.80
2019-04-13T22:42:29.431Z,16.87
2019-04-13T22:45:04.389Z,20.50
2019-04-13T22:47:28.511Z,22.37
2019-04-13T22:50:02.771Z,18.10
2019-04-13T22:52:51.652Z,18.40
2019-04-13T22:55:38.843Z,16.93
2019-04-13T22:58:07.529Z,17.67
2019-04-13T23:00:38.704Z,17.77
2019-04-13T23:03:09.254Z,17.20
2019-04-13T23:05:39.188Z,16.33
2019-04-13T23:08:08.106Z,15.57
2019-04-13T23:10:37.599Z,21.30
2019-04-13T23:13:06.445Z,15.97
2019-04-13T23:15:37.864Z,17.63
2019-04-13T23:18:05.847Z,15.17
2019-04-13T23:20:34.525Z,18.97
2019-04-13T23:23:03.097Z,17.57
2019-04-13T23:25:31.708Z,17.67
2019-04-13T23:28:01.314Z,17.70
2019-04-13T23:30:31.251Z,19.70
2019-04-13T23:32:59.870Z,21.10
2019-04-13T23:35:28.377Z,18.27
2019-04-13T23:37:56.907Z,23.73
2019-04-13T23:40:26.489Z,21.43
2019-04-13T23:42:55.277Z,21.13
2019-04-13T23:45:30.489Z,20.30
2019-04-13T23:47:55.989Z,20.87
2019-04-13T23:50:24.598Z,18.50
2019-04-13T23:52:54.347Z,22.60
2019-04-13T23:55:24.718Z,19.87
2019-04-13T23:58:12.341Z,24.40
